sensor_id;sensor_type;location;lat;lon;timestamp;temperature;humidity
9808;DHT22;4943;52.550;13.462;2023-07-02T00:00:33;20.90;99.90
9808;DHT22;4943;52.550;13.462;2023-07-02T00:03:03;20.90;99.90
9808;DHT22;4943;52.550;13.462;2023-07-02T00:05:31;20.90;99.90
9808;DHT22;4943;52.550;13.462;2023-07-02T00:07:59;20.90;99.90
9808;DHT22;4943;52.550;13.462;2023-07-02T00:10:27;20.90;99.90
9808;DHT22;4943;52.550;13.462;2023-07-02T00:12:56;20.90;99.90
9808;DHT22;4943;52.550;13.462;2023-07-02T00:15:24;20.90;99.90
9808;DHT22;4943;52.550;13.462;2023-07-02T00:17:52;20.90;99.90
9808;DHT22;4943;52.550;13.462;2023-07-02T00:20:24;20.90;99.90
9808;DHT22;4943;52.550;13.462;2023-07-02T00:22:52;20.80;99.90
9808;DHT22;4943;52.550;13.462;2023-07-02T00:25:21;20.80;99.90
9808;DHT22;4943;52.550;13.462;2023-07-02T00:27:49;20.80;99.90
9808;DHT22;4943;52.550;13.462;2023-07-02T00:30:19;20.80;99.90
9808;DHT22;4943;52.550;13.462;2023-07-02T00:32:47;20.80;99.90
9808;DHT22;4943;52.550;13.462;2023-07-02T00:35:15;20.70;99.90
9808;DHT22;4943;52.550;13.462;2023-07-02T00:37:43;20.70;99.90
9808;DHT22;4943;52.550;13.462;2023-07-02T00:40:11;20.70;99.90
9808;DHT22;4943;52.550;13.462;2023-07-02T00:42:39;20.60;99.90
9808;DHT22;4943;52.550;13.462;2023-07-02T00:45:08;20.60;99.90
9808;DHT22;4943;52.550;13.462;2023-07-02T00:47:38;20.60;99.90
9808;DHT22;4943;52.550;13.462;2023-07-02T00:50:06;20.60;99.90
9808;DHT22;4943;52.550;13.462;2023-07-02T00:52:36;20.60;99.90
9808;DHT22;4943;52.550;13.462;2023-07-02T00:55:05;20.60;99.90
9808;DHT22;4943;52.550;13.462;2023-07-02T00:57:33;20.60;99.90
9808;DHT22;4943;52.550;13.462;2023-07-02T01:00:01;20.60;99.90
9808;DHT22;4943;52.550;13.462;2023-07-02T01:02:30;20.50;99.90
9808;DHT22;4943;52.550;13.462;2023-07-02T01:04:59;20.50;99.90
9808;DHT22;4943;52.550;13.462;2023-07-02T01:07:28;20.50;99.90
9808;DHT22;4943;52.550;13.462;2023-07-02T01:09:56;20.50;99.90
9808;DHT22;4943;52.550;13.462;2023-07-02T01:12:25;20.50;99.90
9808;DHT22;4943;52.550;13.462;2023-07-02T01:14:57;20.50;99.90
9808;DHT22;4943;52.550;13.462;2023-07-02T01:17:29;20.40;99.90
9808;DHT22;4943;52.550;13.462;2023-07-02T01:20:07;20.40;99.90
9808;DHT22;4943;52.550;13.462;2023-07-02T01:22:36;20.30;99.90
9808;DHT22;4943;52.550;13.462;2023-07-02T01:25:05;20.20;99.90
9808;DHT22;4943;52.550;13.462;2023-07-02T01:27:35;20.20;99.90
9808;DHT22;4943;52.550;13.462;2023-07-02T01:30:04;20.10;99.90
9808;DHT22;4943;52.550;13.462;2023-07-02T01:32:34;20.20;99.90
9808;DHT22;4943;52.550;13.462;2023-07-02T01:35:04;20.10;99.90
9808;DHT22;4943;52.550;13.462;2023-07-02T01:37:32;20.10;99.90
9808;DHT22;4943;52.550;13.462;2023-07-02T01:40:04;20.10;99.90
9808;DHT22;4943;52.550;13.462;2023-07-02T01:42:34;20.10;99.90
9808;DHT22;4943;52.550;13.462;2023-07-02T01:45:03;20.10;99.90
9808;DHT22;4943;52.550;13.462;2023-07-02T01:47:31;20.10;99.90
9808;DHT22;4943;52.550;13.462;2023-07-02T01:49:59;20.10;99.90
9808;DHT22;4943;52.550;13.462;2023-07-02T01:52:29;20.10;99.90
9808;DHT22;4943;52.550;13.462;2023-07-02T01:55:00;20.00;99.90
9808;DHT22;4943;52.550;13.462;2023-07-02T01:57:28;20.00;99.90
9808;DHT22;4943;52.550;13.462;2023-07-02T01:59:57;20.10;99.90
9808;DHT22;4943;52.550;13.462;2023-07-02T02:02:25;20.10;99.90
9808;DHT22;4943;52.550;13.462;2023-07-02T02:04:54;20.10;99.90
9808;DHT22;4943;52.550;13.462;2023-07-02T02:07:23;20.10;99.90
9808;DHT22;4943;52.550;13.462;2023-07-02T02:09:54;20.10;99.90
9808;DHT22;4943;52.550;13.462;2023-07-02T02:12:22;20.00;99.90
9808;DHT22;4943;52.550;13.462;2023-07-02T02:14:50;20.00;99.90
9808;DHT22;4943;52.550;13.462;2023-07-02T02:17:18;20.00;99.90
9808;DHT22;4943;52.550;13.462;2023-07-02T02:19:46;19.90;99.90
9808;DHT22;4943;52.550;13.462;2023-07-02T02:22:14;19.90;99.90
9808;DHT22;4943;52.550;13.462;2023-07-02T02:24:42;19.90;99.90
9808;DHT22;4943;52.550;13.462;2023-07-02T02:27:12;19.90;99.90
9808;DHT22;4943;52.550;13.462;2023-07-02T02:29:40;19.90;99.90
9808;DHT22;4943;52.550;13.462;2023-07-02T02:32:08;19.80;99.90
9808;DHT22;4943;52.550;13.462;2023-07-02T02:34:36;19.80;99.90
9808;DHT22;4943;52.550;13.462;2023-07-02T02:37:04;19.80;99.90
9808;DHT22;4943;52.550;13.462;2023-07-02T02:39:32;19.80;99.90
9808;DHT22;4943;52.550;13.462;2023-07-02T02:42:00;19.80;99.90
9808;DHT22;4943;52.550;13.462;2023-07-02T02:44:30;19.80;99.90
9808;DHT22;4943;52.550;13.462;2023-07-02T02:46:59;19.80;99.90
9808;DHT22;4943;52.550;13.462;2023-07-02T02:49:27;19.80;99.90
9808;DHT22;4943;52.550;13.462;2023-07-02T02:51:55;19.80;99.90
9808;DHT22;4943;52.550;13.462;2023-07-02T02:54:23;19.80;99.90
9808;DHT22;4943;52.550;13.462;2023-07-02T02:56:51;19.80;99.90
9808;DHT22;4943;52.550;13.462;2023-07-02T02:59:19;19.80;99.90
9808;DHT22;4943;52.550;13.462;2023-07-02T03:01:49;19.70;99.90
9808;DHT22;4943;52.550;13.462;2023-07-02T03:04:18;19.70;99.90
9808;DHT22;4943;52.550;13.462;2023-07-02T03:06:51;19.70;99.90
9808;DHT22;4943;52.550;13.462;2023-07-02T03:09:20;19.70;99.90
9808;DHT22;4943;52.550;13.462;2023-07-02T03:11:48;19.70;99.90
9808;DHT22;4943;52.550;13.462;2023-07-02T03:14:16;19.80;99.90
9808;DHT22;4943;52.550;13.462;2023-07-02T03:16:44;19.80;99.90
9808;DHT22;4943;52.550;13.462;2023-07-02T03:19:14;19.80;99.90
9808;DHT22;4943;52.550;13.462;2023-07-02T03:21:43;19.70;99.90
9808;DHT22;4943;52.550;13.462;2023-07-02T03:24:11;19.80;99.90
9808;DHT22;4943;52.550;13.462;2023-07-02T03:26:40;19.70;99.90
9808;DHT22;4943;52.550;13.462;2023-07-02T03:29:08;19.80;99.90
9808;DHT22;4943;52.550;13.462;2023-07-02T03:31:36;19.80;99.90
9808;DHT22;4943;52.550;13.462;2023-07-02T03:34:07;19.80;99.90
9808;DHT22;4943;52.550;13.462;2023-07-02T03:36:36;19.80;99.90
9808;DHT22;4943;52.550;13.462;2023-07-02T03:39:04;19.80;99.90
9808;DHT22;4943;52.550;13.462;2023-07-02T03:41:36;19.80;99.90
9808;DHT22;4943;52.550;13.462;2023-07-02T03:44:04;19.80;99.90
9808;DHT22;4943;52.550;13.462;2023-07-02T03:46:33;19.80;99.90
9808;DHT22;4943;52.550;13.462;2023-07-02T03:49:01;19.80;99.90
9808;DHT22;4943;52.550;13.462;2023-07-02T03:51:30;19.80;99.90
9808;DHT22;4943;52.550;13.462;2023-07-02T03:53:59;19.80;99.90
9808;DHT22;4943;52.550;13.462;2023-07-02T03:56:27;19.80;99.90
9808;DHT22;4943;52.550;13.462;2023-07-02T03:58:55;19.70;99.90
9808;DHT22;4943;52.550;13.462;2023-07-02T04:01:23;19.70;99.90
9808;DHT22;4943;52.550;13.462;2023-07-02T04:03:52;19.70;99.90
9808;DHT22;4943;52.550;13.462;2023-07-02T04:06:21;19.70;99.90
9808;DHT22;4943;52.550;13.462;2023-07-02T04:08:49;19.70;99.90
9808;DHT22;4943;52.550;13.462;2023-07-02T04:11:19;19.70;99.90
9808;DHT22;4943;52.550;13.462;2023-07-02T04:13:47;19.70;99.90
9808;DHT22;4943;52.550;13.462;2023-07-02T04:16:15;19.70;99.90
9808;DHT22;4943;52.550;13.462;2023-07-02T04:18:43;19.80;99.90
9808;DHT22;4943;52.550;13.462;2023-07-02T04:21:11;19.90;99.90
9808;DHT22;4943;52.550;13.462;2023-07-02T04:23:39;19.90;99.90
9808;DHT22;4943;52.550;13.462;2023-07-02T04:26:07;19.90;99.90
9808;DHT22;4943;52.550;13.462;2023-07-02T04:28:57;19.90;99.90
9808;DHT22;4943;52.550;13.462;2023-07-02T04:31:25;19.90;99.90
9808;DHT22;4943;52.550;13.462;2023-07-02T04:33:54;19.90;99.90
9808;DHT22;4943;52.550;13.462;2023-07-02T04:36:22;19.90;99.90
9808;DHT22;4943;52.550;13.462;2023-07-02T04:38:50;19.90;99.90
9808;DHT22;4943;52.550;13.462;2023-07-02T04:41:18;19.90;99.90
9808;DHT22;4943;52.550;13.462;2023-07-02T04:43:46;19.90;99.90
9808;DHT22;4943;52.550;13.462;2023-07-02T04:46:16;20.00;99.90
9808;DHT22;4943;52.550;13.462;2023-07-02T04:48:45;20.10;99.90
9808;DHT22;4943;52.550;13.462;2023-07-02T04:51:13;20.10;99.90
9808;DHT22;4943;52.550;13.462;2023-07-02T04:53:42;20.20;99.90
9808;DHT22;4943;52.550;13.462;2023-07-02T04:56:10;20.20;99.90
9808;DHT22;4943;52.550;13.462;2023-07-02T04:58:38;20.30;99.90
9808;DHT22;4943;52.550;13.462;2023-07-02T05:01:06;20.30;99.90
9808;DHT22;4943;52.550;13.462;2023-07-02T05:03:37;20.30;99.90
9808;DHT22;4943;52.550;13.462;2023-07-02T05:06:05;20.30;99.90
9808;DHT22;4943;52.550;13.462;2023-07-02T05:08:33;20.40;99.90
9808;DHT22;4943;52.550;13.462;2023-07-02T05:11:03;20.40;99.90
9808;DHT22;4943;52.550;13.462;2023-07-02T05:13:31;20.50;99.90
9808;DHT22;4943;52.550;13.462;2023-07-02T05:15:59;20.60;99.90
9808;DHT22;4943;52.550;13.462;2023-07-02T05:18:27;20.70;99.90
9808;DHT22;4943;52.550;13.462;2023-07-02T05:20:56;20.70;99.90
9808;DHT22;4943;52.550;13.462;2023-07-02T05:23:24;20.80;99.90
9808;DHT22;4943;52.550;13.462;2023-07-02T05:25:52;20.80;99.90
9808;DHT22;4943;52.550;13.462;2023-07-02T05:28:20;20.80;99.90
9808;DHT22;4943;52.550;13.462;2023-07-02T05:30:48;20.80;99.90
9808;DHT22;4943;52.550;13.462;2023-07-02T05:33:18;20.70;99.90
9808;DHT22;4943;52.550;13.462;2023-07-02T05:35:46;20.70;99.90
9808;DHT22;4943;52.550;13.462;2023-07-02T05:38:17;20.60;99.90
9808;DHT22;4943;52.550;13.462;2023-07-02T05:40:45;20.60;99.90
9808;DHT22;4943;52.550;13.462;2023-07-02T05:43:14;20.60;99.90
9808;DHT22;4943;52.550;13.462;2023-07-02T05:45:42;20.70;99.90
9808;DHT22;4943;52.550;13.462;2023-07-02T05:48:10;20.80;99.90
9808;DHT22;4943;52.550;13.462;2023-07-02T05:50:38;20.80;99.90
9808;DHT22;4943;52.550;13.462;2023-07-02T05:53:06;20.80;99.90
9808;DHT22;4943;52.550;13.462;2023-07-02T05:55:37;20.80;99.90
9808;DHT22;4943;52.550;13.462;2023-07-02T05:58:06;20.70;99.90
9808;DHT22;4943;52.550;13.462;2023-07-02T06:00:34;20.70;99.90
9808;DHT22;4943;52.550;13.462;2023-07-02T06:03:02;20.70;99.90
9808;DHT22;4943;52.550;13.462;2023-07-02T06:05:30;20.70;99.90
9808;DHT22;4943;52.550;13.462;2023-07-02T06:07:58;20.80;99.90
9808;DHT22;4943;52.550;13.462;2023-07-02T06:10:26;20.90;99.90
9808;DHT22;4943;52.550;13.462;2023-07-02T06:12:56;21.00;99.90
9808;DHT22;4943;52.550;13.462;2023-07-02T06:15:24;21.10;99.90
9808;DHT22;4943;52.550;13.462;2023-07-02T06:17:52;21.30;99.90
9808;DHT22;4943;52.550;13.462;2023-07-02T06:20:20;21.40;99.90
9808;DHT22;4943;52.550;13.462;2023-07-02T06:22:48;21.60;99.90
9808;DHT22;4943;52.550;13.462;2023-07-02T06:25:16;21.70;99.90
9808;DHT22;4943;52.550;13.462;2023-07-02T06:27:44;21.80;99.90
9808;DHT22;4943;52.550;13.462;2023-07-02T06:30:14;21.80;99.90
9808;DHT22;4943;52.550;13.462;2023-07-02T06:32:42;21.80;99.90
9808;DHT22;4943;52.550;13.462;2023-07-02T06:35:10;21.70;99.90
9808;DHT22;4943;52.550;13.462;2023-07-02T06:37:38;21.70;99.90
9808;DHT22;4943;52.550;13.462;2023-07-02T06:40:07;21.70;99.90
9808;DHT22;4943;52.550;13.462;2023-07-02T06:42:35;21.60;99.90
9808;DHT22;4943;52.550;13.462;2023-07-02T06:45:04;21.50;99.90
9808;DHT22;4943;52.550;13.462;2023-07-02T06:47:34;21.60;99.90
9808;DHT22;4943;52.550;13.462;2023-07-02T06:50:02;21.60;99.90
9808;DHT22;4943;52.550;13.462;2023-07-02T06:52:30;21.70;99.90
9808;DHT22;4943;52.550;13.462;2023-07-02T06:54:58;21.70;99.90
9808;DHT22;4943;52.550;13.462;2023-07-02T06:57:26;21.70;99.90
9808;DHT22;4943;52.550;13.462;2023-07-02T06:59:57;21.80;99.90
9808;DHT22;4943;52.550;13.462;2023-07-02T07:02:26;22.00;99.90
9808;DHT22;4943;52.550;13.462;2023-07-02T07:04:56;22.20;99.90
9808;DHT22;4943;52.550;13.462;2023-07-02T07:07:24;22.30;99.90
9808;DHT22;4943;52.550;13.462;2023-07-02T07:09:52;22.50;99.90
9808;DHT22;4943;52.550;13.462;2023-07-02T07:12:20;22.60;99.90
9808;DHT22;4943;52.550;13.462;2023-07-02T07:14:48;22.70;99.90
9808;DHT22;4943;52.550;13.462;2023-07-02T07:17:17;22.70;99.90
9808;DHT22;4943;52.550;13.462;2023-07-02T07:19:45;22.80;99.90
9808;DHT22;4943;52.550;13.462;2023-07-02T07:22:14;22.80;99.90
9808;DHT22;4943;52.550;13.462;2023-07-02T07:24:42;22.80;99.90
9808;DHT22;4943;52.550;13.462;2023-07-02T07:27:10;22.80;99.90
9808;DHT22;4943;52.550;13.462;2023-07-02T07:29:38;22.80;99.90
9808;DHT22;4943;52.550;13.462;2023-07-02T07:32:07;22.80;99.90
9808;DHT22;4943;52.550;13.462;2023-07-02T07:34:35;22.70;99.90
9808;DHT22;4943;52.550;13.462;2023-07-02T07:37:03;22.70;99.90
9808;DHT22;4943;52.550;13.462;2023-07-02T07:39:33;22.70;99.90
9808;DHT22;4943;52.550;13.462;2023-07-02T07:42:01;22.80;99.90
9808;DHT22;4943;52.550;13.462;2023-07-02T07:44:29;22.90;99.90
9808;DHT22;4943;52.550;13.462;2023-07-02T07:46:57;23.00;99.90
9808;DHT22;4943;52.550;13.462;2023-07-02T07:49:25;23.00;99.90
9808;DHT22;4943;52.550;13.462;2023-07-02T07:51:53;23.00;99.90
9808;DHT22;4943;52.550;13.462;2023-07-02T07:54:21;23.00;99.90
9808;DHT22;4943;52.550;13.462;2023-07-02T07:56:52;22.90;99.90
9808;DHT22;4943;52.550;13.462;2023-07-02T07:59:20;22.70;99.90
9808;DHT22;4943;52.550;13.462;2023-07-02T08:01:48;22.50;99.90
9808;DHT22;4943;52.550;13.462;2023-07-02T08:04:16;22.40;99.90
9808;DHT22;4943;52.550;13.462;2023-07-02T08:06:46;22.30;99.90
9808;DHT22;4943;52.550;13.462;2023-07-02T08:09:14;22.20;99.90
9808;DHT22;4943;52.550;13.462;2023-07-02T08:11:42;22.20;99.90
9808;DHT22;4943;52.550;13.462;2023-07-02T08:14:12;22.30;99.90
9808;DHT22;4943;52.550;13.462;2023-07-02T08:16:40;22.30;99.90
9808;DHT22;4943;52.550;13.462;2023-07-02T08:19:08;22.40;99.90
9808;DHT22;4943;52.550;13.462;2023-07-02T08:21:36;22.50;99.90
9808;DHT22;4943;52.550;13.462;2023-07-02T08:24:04;22.50;99.90
9808;DHT22;4943;52.550;13.462;2023-07-02T08:26:33;22.50;99.90
9808;DHT22;4943;52.550;13.462;2023-07-02T08:29:01;22.60;99.90
9808;DHT22;4943;52.550;13.462;2023-07-02T08:31:30;22.60;99.90
9808;DHT22;4943;52.550;13.462;2023-07-02T08:33:58;22.70;99.90
9808;DHT22;4943;52.550;13.462;2023-07-02T08:36:26;22.80;99.90
9808;DHT22;4943;52.550;13.462;2023-07-02T08:38:54;22.80;99.90
9808;DHT22;4943;52.550;13.462;2023-07-02T08:41:23;22.90;99.90
9808;DHT22;4943;52.550;13.462;2023-07-02T08:43:55;22.90;99.90
9808;DHT22;4943;52.550;13.462;2023-07-02T08:46:23;23.00;99.90
9808;DHT22;4943;52.550;13.462;2023-07-02T08:48:52;23.00;99.90
9808;DHT22;4943;52.550;13.462;2023-07-02T08:51:20;23.00;99.90
9808;DHT22;4943;52.550;13.462;2023-07-02T08:53:49;23.00;99.90
9808;DHT22;4943;52.550;13.462;2023-07-02T08:56:17;23.00;99.90
9808;DHT22;4943;52.550;13.462;2023-07-02T08:58:45;23.10;99.90
9808;DHT22;4943;52.550;13.462;2023-07-02T09:01:14;23.20;99.90
9808;DHT22;4943;52.550;13.462;2023-07-02T09:03:42;23.30;99.90
9808;DHT22;4943;52.550;13.462;2023-07-02T09:06:12;23.40;99.90
9808;DHT22;4943;52.550;13.462;2023-07-02T09:08:40;23.40;99.90
9808;DHT22;4943;52.550;13.462;2023-07-02T09:11:09;23.60;99.90
9808;DHT22;4943;52.550;13.462;2023-07-02T09:13:45;23.70;99.90
9808;DHT22;4943;52.550;13.462;2023-07-02T09:16:23;23.90;99.90
9808;DHT22;4943;52.550;13.462;2023-07-02T09:18:59;24.00;99.90
9808;DHT22;4943;52.550;13.462;2023-07-02T09:21:38;24.10;99.90
9808;DHT22;4943;52.550;13.462;2023-07-02T09:24:16;24.20;99.90
9808;DHT22;4943;52.550;13.462;2023-07-02T09:26:45;24.20;99.90
9808;DHT22;4943;52.550;13.462;2023-07-02T09:31:46;24.20;99.90
9808;DHT22;4943;52.550;13.462;2023-07-02T09:34:35;24.10;99.90
9808;DHT22;4943;52.550;13.462;2023-07-02T09:37:05;23.90;99.90
9808;DHT22;4943;52.550;13.462;2023-07-02T09:39:34;23.80;99.90
9808;DHT22;4943;52.550;13.462;2023-07-02T09:42:06;23.80;99.90
9808;DHT22;4943;52.550;13.462;2023-07-02T09:44:35;23.70;99.90
9808;DHT22;4943;52.550;13.462;2023-07-02T09:47:04;23.70;99.90
9808;DHT22;4943;52.550;13.462;2023-07-02T09:49:33;23.80;99.90
9808;DHT22;4943;52.550;13.462;2023-07-02T09:52:05;23.80;99.90
9808;DHT22;4943;52.550;13.462;2023-07-02T09:54:34;23.90;99.90
9808;DHT22;4943;52.550;13.462;2023-07-02T09:57:03;23.90;99.90
9808;DHT22;4943;52.550;13.462;2023-07-02T09:59:31;24.00;99.90
9808;DHT22;4943;52.550;13.462;2023-07-02T10:01:59;24.00;99.90
9808;DHT22;4943;52.550;13.462;2023-07-02T10:04:27;24.00;99.70
9808;DHT22;4943;52.550;13.462;2023-07-02T10:06:57;24.00;99.20
9808;DHT22;4943;52.550;13.462;2023-07-02T10:09:36;23.90;98.80
9808;DHT22;4943;52.550;13.462;2023-07-02T10:12:18;23.70;98.90
9808;DHT22;4943;52.550;13.462;2023-07-02T10:14:46;23.60;99.10
9808;DHT22;4943;52.550;13.462;2023-07-02T10:17:25;23.60;99.30
9808;DHT22;4943;52.550;13.462;2023-07-02T10:19:55;23.70;99.90
9808;DHT22;4943;52.550;13.462;2023-07-02T10:22:24;23.80;99.90
9808;DHT22;4943;52.550;13.462;2023-07-02T10:24:54;23.90;99.80
9808;DHT22;4943;52.550;13.462;2023-07-02T10:27:33;24.10;99.60
9808;DHT22;4943;52.550;13.462;2023-07-02T10:30:03;24.30;99.20
9808;DHT22;4943;52.550;13.462;2023-07-02T10:32:32;24.40;99.00
9808;DHT22;4943;52.550;13.462;2023-07-02T10:35:01;24.50;99.20
9808;DHT22;4943;52.550;13.462;2023-07-02T10:37:37;24.60;99.10
9808;DHT22;4943;52.550;13.462;2023-07-02T10:40:08;24.50;98.40
9808;DHT22;4943;52.550;13.462;2023-07-02T10:42:47;24.50;98.80
9808;DHT22;4943;52.550;13.462;2023-07-02T10:45:16;24.60;98.90
9808;DHT22;4943;52.550;13.462;2023-07-02T10:47:44;24.70;99.10
9808;DHT22;4943;52.550;13.462;2023-07-02T10:50:16;24.80;98.80
9808;DHT22;4943;52.550;13.462;2023-07-02T10:52:44;24.80;98.70
9808;DHT22;4943;52.550;13.462;2023-07-02T10:55:17;24.90;98.40
9808;DHT22;4943;52.550;13.462;2023-07-02T10:57:47;24.90;98.30
9808;DHT22;4943;52.550;13.462;2023-07-02T11:00:18;24.80;98.20
9808;DHT22;4943;52.550;13.462;2023-07-02T11:02:48;24.70;97.40
9808;DHT22;4943;52.550;13.462;2023-07-02T11:05:16;24.60;97.40
9808;DHT22;4943;52.550;13.462;2023-07-02T11:07:45;24.50;97.40
9808;DHT22;4943;52.550;13.462;2023-07-02T11:10:19;24.30;97.60
9808;DHT22;4943;52.550;13.462;2023-07-02T11:12:47;24.20;97.40
9808;DHT22;4943;52.550;13.462;2023-07-02T11:15:16;24.10;97.30
9808;DHT22;4943;52.550;13.462;2023-07-02T11:17:45;23.90;97.20
9808;DHT22;4943;52.550;13.462;2023-07-02T11:20:14;23.80;97.20
9808;DHT22;4943;52.550;13.462;2023-07-02T11:22:43;23.70;97.20
9808;DHT22;4943;52.550;13.462;2023-07-02T11:25:15;23.60;97.40
9808;DHT22;4943;52.550;13.462;2023-07-02T11:27:45;23.50;97.50
9808;DHT22;4943;52.550;13.462;2023-07-02T11:30:14;23.40;97.60
9808;DHT22;4943;52.550;13.462;2023-07-02T11:32:49;23.30;97.60
9808;DHT22;4943;52.550;13.462;2023-07-02T11:35:18;23.30;97.90
9808;DHT22;4943;52.550;13.462;2023-07-02T11:37:46;23.40;98.00
9808;DHT22;4943;52.550;13.462;2023-07-02T11:40:17;23.50;97.80
9808;DHT22;4943;52.550;13.462;2023-07-02T11:42:47;23.50;96.40
9808;DHT22;4943;52.550;13.462;2023-07-02T11:45:15;23.60;95.80
9808;DHT22;4943;52.550;13.462;2023-07-02T11:47:43;23.60;95.50
9808;DHT22;4943;52.550;13.462;2023-07-02T11:50:12;23.70;95.40
9808;DHT22;4943;52.550;13.462;2023-07-02T11:52:52;23.70;95.20
9808;DHT22;4943;52.550;13.462;2023-07-02T11:55:22;23.80;95.30
9808;DHT22;4943;52.550;13.462;2023-07-02T11:57:52;23.90;95.30
9808;DHT22;4943;52.550;13.462;2023-07-02T12:00:20;24.00;95.30
9808;DHT22;4943;52.550;13.462;2023-07-02T12:02:48;24.10;95.20
9808;DHT22;4943;52.550;13.462;2023-07-02T12:05:17;24.30;95.10
9808;DHT22;4943;52.550;13.462;2023-07-02T12:07:45;24.50;94.40
9808;DHT22;4943;52.550;13.462;2023-07-02T12:10:13;24.70;94.00
9808;DHT22;4943;52.550;13.462;2023-07-02T12:12:41;24.70;93.40
9808;DHT22;4943;52.550;13.462;2023-07-02T12:15:11;24.80;92.70
9808;DHT22;4943;52.550;13.462;2023-07-02T12:17:39;24.80;92.20
9808;DHT22;4943;52.550;13.462;2023-07-02T12:20:08;24.80;92.20
9808;DHT22;4943;52.550;13.462;2023-07-02T12:22:36;24.80;92.70
9808;DHT22;4943;52.550;13.462;2023-07-02T12:25:05;25.00;92.90
9808;DHT22;4943;52.550;13.462;2023-07-02T12:27:33;25.10;92.10
9808;DHT22;4943;52.550;13.462;2023-07-02T12:30:01;25.10;91.80
9808;DHT22;4943;52.550;13.462;2023-07-02T12:32:30;25.20;92.00
9808;DHT22;4943;52.550;13.462;2023-07-02T12:34:59;25.40;92.20
9808;DHT22;4943;52.550;13.462;2023-07-02T12:37:27;25.50;91.70
9808;DHT22;4943;52.550;13.462;2023-07-02T12:39:55;25.60;91.90
9808;DHT22;4943;52.550;13.462;2023-07-02T12:42:23;25.60;91.20
9808;DHT22;4943;52.550;13.462;2023-07-02T12:44:51;25.50;90.60
9808;DHT22;4943;52.550;13.462;2023-07-02T12:47:19;25.40;91.00
9808;DHT22;4943;52.550;13.462;2023-07-02T12:49:48;25.30;91.30
9808;DHT22;4943;52.550;13.462;2023-07-02T12:52:16;25.20;90.80
9808;DHT22;4943;52.550;13.462;2023-07-02T12:54:44;25.40;90.80
9808;DHT22;4943;52.550;13.462;2023-07-02T12:57:12;25.50;90.60
9808;DHT22;4943;52.550;13.462;2023-07-02T12:59:42;25.60;88.40
9808;DHT22;4943;52.550;13.462;2023-07-02T13:02:10;25.70;89.50
9808;DHT22;4943;52.550;13.462;2023-07-02T13:04:39;25.80;88.80
9808;DHT22;4943;52.550;13.462;2023-07-02T13:07:08;25.80;89.40
9808;DHT22;4943;52.550;13.462;2023-07-02T13:09:36;25.80;89.00
9808;DHT22;4943;52.550;13.462;2023-07-02T13:12:05;25.60;88.60
9808;DHT22;4943;52.550;13.462;2023-07-02T13:14:34;25.50;89.30
9808;DHT22;4943;52.550;13.462;2023-07-02T13:17:02;25.40;90.00
9808;DHT22;4943;52.550;13.462;2023-07-02T13:19:32;25.40;90.00
9808;DHT22;4943;52.550;13.462;2023-07-02T13:22:00;25.40;89.90
9808;DHT22;4943;52.550;13.462;2023-07-02T13:24:34;25.30;89.40
9808;DHT22;4943;52.550;13.462;2023-07-02T13:27:04;25.20;89.70
9808;DHT22;4943;52.550;13.462;2023-07-02T13:29:34;25.20;88.80
9808;DHT22;4943;52.550;13.462;2023-07-02T13:32:02;25.10;87.80
9808;DHT22;4943;52.550;13.462;2023-07-02T13:34:30;25.10;87.20
9808;DHT22;4943;52.550;13.462;2023-07-02T13:36:58;25.10;88.20
9808;DHT22;4943;52.550;13.462;2023-07-02T13:39:26;25.20;88.00
9808;DHT22;4943;52.550;13.462;2023-07-02T13:41:55;25.30;87.30
9808;DHT22;4943;52.550;13.462;2023-07-02T13:44:23;25.40;86.70
9808;DHT22;4943;52.550;13.462;2023-07-02T13:46:52;25.40;86.40
9808;DHT22;4943;52.550;13.462;2023-07-02T13:49:20;25.50;87.80
9808;DHT22;4943;52.550;13.462;2023-07-02T13:51:49;25.60;86.70
9808;DHT22;4943;52.550;13.462;2023-07-02T13:54:17;25.70;86.10
9808;DHT22;4943;52.550;13.462;2023-07-02T13:56:46;25.70;86.20
9808;DHT22;4943;52.550;13.462;2023-07-02T13:59:18;25.80;86.60
9808;DHT22;4943;52.550;13.462;2023-07-02T14:01:47;26.00;87.10
9808;DHT22;4943;52.550;13.462;2023-07-02T14:04:17;26.00;86.20
9808;DHT22;4943;52.550;13.462;2023-07-02T14:06:46;26.00;85.50
9808;DHT22;4943;52.550;13.462;2023-07-02T14:09:14;25.80;84.70
9808;DHT22;4943;52.550;13.462;2023-07-02T14:11:42;25.60;84.40
9808;DHT22;4943;52.550;13.462;2023-07-02T14:14:10;25.50;84.60
9808;DHT22;4943;52.550;13.462;2023-07-02T14:16:40;25.30;84.50
9808;DHT22;4943;52.550;13.462;2023-07-02T14:19:08;25.30;85.00
9808;DHT22;4943;52.550;13.462;2023-07-02T14:21:37;25.30;85.70
9808;DHT22;4943;52.550;13.462;2023-07-02T14:24:05;25.40;85.30
9808;DHT22;4943;52.550;13.462;2023-07-02T14:26:33;25.50;85.50
9808;DHT22;4943;52.550;13.462;2023-07-02T14:29:01;25.60;86.40
9808;DHT22;4943;52.550;13.462;2023-07-02T14:31:29;25.70;85.30
9808;DHT22;4943;52.550;13.462;2023-07-02T14:33:59;25.80;84.80
9808;DHT22;4943;52.550;13.462;2023-07-02T14:36:27;26.00;84.20
9808;DHT22;4943;52.550;13.462;2023-07-02T14:38:55;26.10;83.20
9808;DHT22;4943;52.550;13.462;2023-07-02T14:41:23;26.10;82.20
9808;DHT22;4943;52.550;13.462;2023-07-02T14:43:51;26.20;82.00
9808;DHT22;4943;52.550;13.462;2023-07-02T14:46:19;26.20;81.70
9808;DHT22;4943;52.550;13.462;2023-07-02T14:48:49;26.20;81.40
9808;DHT22;4943;52.550;13.462;2023-07-02T14:51:18;26.20;81.20
9808;DHT22;4943;52.550;13.462;2023-07-02T14:53:46;26.20;80.90
9808;DHT22;4943;52.550;13.462;2023-07-02T14:56:14;26.20;81.10
9808;DHT22;4943;52.550;13.462;2023-07-02T14:58:42;26.30;81.30
9808;DHT22;4943;52.550;13.462;2023-07-02T15:01:10;26.40;81.50
9808;DHT22;4943;52.550;13.462;2023-07-02T15:03:39;26.50;80.60
9808;DHT22;4943;52.550;13.462;2023-07-02T15:06:09;26.50;81.10
9808;DHT22;4943;52.550;13.462;2023-07-02T15:08:39;26.60;81.20
9808;DHT22;4943;52.550;13.462;2023-07-02T15:11:08;26.70;81.50
9808;DHT22;4943;52.550;13.462;2023-07-02T15:13:37;26.90;80.30
9808;DHT22;4943;52.550;13.462;2023-07-02T15:16:08;26.90;80.10
9808;DHT22;4943;52.550;13.462;2023-07-02T15:18:36;27.00;79.70
9808;DHT22;4943;52.550;13.462;2023-07-02T15:21:05;26.90;78.40
9808;DHT22;4943;52.550;13.462;2023-07-02T15:23:33;26.80;78.40
9808;DHT22;4943;52.550;13.462;2023-07-02T15:26:04;26.70;78.80
9808;DHT22;4943;52.550;13.462;2023-07-02T15:28:33;26.80;78.80
9808;DHT22;4943;52.550;13.462;2023-07-02T15:31:05;26.90;79.00
9808;DHT22;4943;52.550;13.462;2023-07-02T15:33:33;27.10;79.30
9808;DHT22;4943;52.550;13.462;2023-07-02T15:36:03;27.30;79.80
9808;DHT22;4943;52.550;13.462;2023-07-02T15:38:31;27.60;80.20
9808;DHT22;4943;52.550;13.462;2023-07-02T15:41:09;27.90;79.40
9808;DHT22;4943;52.550;13.462;2023-07-02T15:43:38;28.10;78.80
9808;DHT22;4943;52.550;13.462;2023-07-02T15:46:06;28.00;76.60
9808;DHT22;4943;52.550;13.462;2023-07-02T15:48:35;27.90;76.20
9808;DHT22;4943;52.550;13.462;2023-07-02T15:51:03;27.60;75.80
9808;DHT22;4943;52.550;13.462;2023-07-02T15:53:32;27.50;76.20
9808;DHT22;4943;52.550;13.462;2023-07-02T15:56:01;27.30;76.10
9808;DHT22;4943;52.550;13.462;2023-07-02T15:58:31;27.10;75.60